Greybrook Lake, Indiana
Current Conditions -  °F | °C
As of 5:55 PM on Wednesday 22 Oct 2014 (Local Time) from K4I7 Reporting Station
Clear Clear  
Wind Chill: 55°   Ceiling: Unl
Heat Index: 55°   Visibility: 7mi
Dew Point: 39°   Wind: 0mph
Humidity: 54%   Direction: NA
Pressure: 30.26"   Gusts: NA
Location:  39.4501°N, 86.975°W
Report Text: K4I7 222155Z AUTO 00000KT 7SM CLR 13/04 A3026 RMK AO2
Loading
Personal Weather Stations






























Interactive Weather Map
Tropical Storm Tracking
New forecast layout! Learn more

10-Day Weather Forecast

Advertisements
Track Severe Weather on mobile